createdAt,value
2022-11-15T00:01:29.534Z,3.98
2022-11-15T00:04:15.375Z,3.96
2022-11-15T00:07:01.039Z,3.92
2022-11-15T00:09:46.548Z,3.90
2022-11-15T00:12:32.390Z,3.87
2022-11-15T00:15:17.929Z,3.86
2022-11-15T00:18:04.621Z,3.70
2022-11-15T00:20:50.503Z,3.79
2022-11-15T00:23:36.954Z,3.79
2022-11-15T00:26:22.327Z,3.81
2022-11-15T00:29:08.328Z,3.85
2022-11-15T00:31:53.862Z,3.81
2022-11-15T00:34:39.263Z,3.79
2022-11-15T00:37:25.018Z,3.83
2022-11-15T00:40:11.411Z,3.82
2022-11-15T00:42:57.315Z,3.82
2022-11-15T00:45:42.680Z,3.76
2022-11-15T00:48:28.314Z,3.65
2022-11-15T00:51:13.805Z,3.49
2022-11-15T00:53:59.614Z,3.61
2022-11-15T00:56:45.119Z,3.56
2022-11-15T00:59:30.697Z,3.62
2022-11-15T01:02:16.417Z,3.64
2022-11-15T01:05:02.123Z,3.52
2022-11-15T01:07:47.611Z,3.61
2022-11-15T01:10:33.149Z,3.54
2022-11-15T01:13:18.498Z,3.46
2022-11-15T01:16:12.046Z,3.59
2022-11-15T01:18:57.684Z,3.55
2022-11-15T01:21:43.127Z,3.46
2022-11-15T01:24:28.438Z,3.46
2022-11-15T01:27:14.200Z,3.39
2022-11-15T01:29:59.953Z,3.39
2022-11-15T01:32:45.190Z,3.43
2022-11-15T01:35:30.070Z,3.46
2022-11-15T01:38:15.933Z,3.43
2022-11-15T01:41:01.759Z,3.41
2022-11-15T01:43:50.434Z,3.27
2022-11-15T01:46:37.175Z,3.40
2022-11-15T01:49:24.646Z,3.32
2022-11-15T01:52:18.964Z,3.36
2022-11-15T01:55:07.461Z,3.33
2022-11-15T01:57:56.251Z,3.26
2022-11-15T02:00:42.021Z,3.25
2022-11-15T02:03:36.847Z,3.14
2022-11-15T02:06:23.040Z,3.28
2022-11-15T02:09:08.803Z,3.21
2022-11-15T02:11:56.268Z,3.32
2022-11-15T02:14:44.052Z,3.23
2022-11-15T02:17:44.716Z,3.25
2022-11-15T02:20:36.014Z,3.29
2022-11-15T02:23:42.800Z,3.24
2022-11-15T02:26:59.299Z,3.18
2022-11-15T02:29:44.584Z,3.13
2022-11-15T02:33:02.525Z,3.13
2022-11-15T02:35:59.465Z,3.09
2022-11-15T02:39:01.152Z,3.05
2022-11-15T02:41:57.920Z,3.07
2022-11-15T02:44:47.242Z,3.13
2022-11-15T02:47:35.283Z,3.10
2022-11-15T02:50:25.721Z,3.04
2022-11-15T02:53:11.476Z,3.00
2022-11-15T02:55:58.493Z,3.01
2022-11-15T02:59:06.384Z,3.08
2022-11-15T03:02:04.226Z,3.08
2022-11-15T03:05:03.995Z,3.10
2022-11-15T03:08:03.504Z,3.17
2022-11-15T03:11:15.775Z,3.20
2022-11-15T03:14:04.253Z,3.30
2022-11-15T03:16:56.148Z,3.33
2022-11-15T03:19:44.904Z,3.31
2022-11-15T03:22:43.606Z,3.32
2022-11-15T03:25:31.016Z,3.30
2022-11-15T03:28:23.413Z,3.27
2022-11-15T03:31:29.842Z,3.39
2022-11-15T03:34:45.137Z,3.34
2022-11-15T03:37:45.259Z,3.27
2022-11-15T03:40:38.101Z,3.30
2022-11-15T03:43:45.584Z,3.36
2022-11-15T03:46:41.126Z,3.34
2022-11-15T03:49:32.211Z,3.32
2022-11-15T03:52:22.918Z,3.45
2022-11-15T03:55:11.767Z,3.39
2022-11-15T03:58:00.656Z,3.32
2022-11-15T04:00:45.966Z,3.33
2022-11-15T04:03:31.868Z,3.39
2022-11-15T04:06:17.358Z,3.08
2022-11-15T04:09:02.815Z,3.20
2022-11-15T04:11:48.772Z,3.04
2022-11-15T04:14:34.240Z,3.35
2022-11-15T04:17:19.927Z,3.25
2022-11-15T04:20:30.446Z,3.21
2022-11-15T04:23:36.978Z,3.19
2022-11-15T04:26:24.798Z,3.14
2022-11-15T04:29:28.848Z,3.24
2022-11-15T04:32:14.347Z,3.22
2022-11-15T04:35:00.044Z,3.26
2022-11-15T04:37:49.255Z,3.20
2022-11-15T04:40:35.957Z,3.32
2022-11-15T04:43:21.866Z,3.20
2022-11-15T04:46:07.432Z,3.20
2022-11-15T04:48:58.225Z,3.27
2022-11-15T04:51:44.563Z,3.06
2022-11-15T04:54:30.165Z,3.40
2022-11-15T04:57:15.992Z,3.41
2022-11-15T05:00:01.696Z,3.41
2022-11-15T05:03:05.376Z,3.46
2022-11-15T05:05:50.876Z,3.51
2022-11-15T05:08:37.571Z,3.50
2022-11-15T05:11:23.732Z,3.60
2022-11-15T05:14:09.273Z,3.57
2022-11-15T05:16:54.678Z,3.38
2022-11-15T05:19:40.957Z,3.43
2022-11-15T05:22:26.398Z,3.58
2022-11-15T05:25:11.900Z,3.58
2022-11-15T05:27:57.342Z,3.69
2022-11-15T05:30:43.132Z,3.85
2022-11-15T05:33:29.078Z,3.87
2022-11-15T05:36:38.887Z,3.98
2022-11-15T05:39:24.608Z,4.01
2022-11-15T05:42:16.208Z,3.91
2022-11-15T05:45:06.530Z,4.02
2022-11-15T05:47:53.589Z,4.03
2022-11-15T05:50:44.153Z,4.09
2022-11-15T05:53:30.999Z,4.11
2022-11-15T05:56:17.229Z,4.05
2022-11-15T05:59:04.035Z,4.17
2022-11-15T06:01:50.081Z,3.95
2022-11-15T06:04:35.611Z,3.95
2022-11-15T06:07:21.308Z,4.08
2022-11-15T06:10:08.804Z,4.13
2022-11-15T06:13:02.261Z,3.99
2022-11-15T06:15:47.768Z,4.13
2022-11-15T06:18:34.781Z,4.28
2022-11-15T06:21:20.173Z,4.28
2022-11-15T06:24:06.863Z,4.27
2022-11-15T06:26:52.691Z,4.41
2022-11-15T06:29:38.279Z,4.48
2022-11-15T06:32:24.192Z,4.37
2022-11-15T06:35:10.007Z,4.41
2022-11-15T06:37:55.740Z,4.35
2022-11-15T06:40:41.066Z,4.35
2022-11-15T06:43:26.759Z,4.18
2022-11-15T06:46:12.596Z,3.74
2022-11-15T06:48:57.866Z,4.05
2022-11-15T06:51:43.446Z,4.09
2022-11-15T06:54:29.349Z,4.21
2022-11-15T06:57:14.809Z,3.95
2022-11-15T07:00:00.230Z,4.03
2022-11-15T07:02:45.771Z,4.04
2022-11-15T07:05:31.553Z,4.12
2022-11-15T07:08:17.277Z,4.08
2022-11-15T07:11:06.639Z,3.92
2022-11-15T07:13:52.319Z,3.95
2022-11-15T07:16:38.498Z,4.13
2022-11-15T07:19:24.181Z,4.18
2022-11-15T07:22:09.817Z,4.31
2022-11-15T07:24:55.150Z,4.33
2022-11-15T07:27:41.294Z,4.62
2022-11-15T07:30:28.415Z,4.73
2022-11-15T07:33:13.796Z,4.33
2022-11-15T07:36:06.129Z,4.57
2022-11-15T07:38:51.386Z,4.59
2022-11-15T07:41:47.371Z,4.50
2022-11-15T07:44:33.073Z,4.68
2022-11-15T07:47:18.590Z,4.78
2022-11-15T07:50:04.405Z,4.93
2022-11-15T07:52:54.676Z,4.81
2022-11-15T07:55:42.150Z,4.65
2022-11-15T07:58:27.930Z,4.71
2022-11-15T08:01:14.537Z,4.93
2022-11-15T08:04:00.545Z,4.86
2022-11-15T08:06:46.043Z,4.97
2022-11-15T08:09:31.769Z,4.89
2022-11-15T08:12:17.395Z,5.24
2022-11-15T08:15:04.034Z,5.17
2022-11-15T08:18:05.172Z,5.23
2022-11-15T08:20:50.785Z,5.26
2022-11-15T08:23:36.428Z,5.37
2022-11-15T08:26:21.788Z,5.14
2022-11-15T08:29:09.782Z,5.04
2022-11-15T08:31:59.204Z,4.99
2022-11-15T08:34:45.365Z,5.04
2022-11-15T08:37:31.114Z,4.97
2022-11-15T08:40:16.925Z,4.99
2022-11-15T08:43:04.192Z,5.03
2022-11-15T08:45:50.048Z,4.89
2022-11-15T08:48:35.517Z,5.16
2022-11-15T08:51:23.894Z,5.10
2022-11-15T08:54:09.874Z,4.89
2022-11-15T08:56:55.666Z,5.00
2022-11-15T08:59:41.248Z,5.13
2022-11-15T09:02:27.272Z,5.21
2022-11-15T09:05:12.856Z,5.28
2022-11-15T09:07:58.609Z,5.18
2022-11-15T09:10:44.061Z,5.30
2022-11-15T09:13:29.555Z,5.06
2022-11-15T09:16:16.317Z,5.36
2022-11-15T09:19:02.079Z,5.49
2022-11-15T09:21:47.781Z,5.43
2022-11-15T09:24:33.528Z,5.36
2022-11-15T09:27:19.559Z,5.57
2022-11-15T09:30:06.294Z,5.62
2022-11-15T09:32:52.049Z,5.67
2022-11-15T09:35:37.827Z,5.50
2022-11-15T09:38:23.098Z,5.45
2022-11-15T09:41:14.995Z,5.57
2022-11-15T09:44:12.337Z,5.81
2022-11-15T09:47:06.443Z,5.83
2022-11-15T09:49:59.535Z,5.88
2022-11-15T09:52:37.098Z,5.90
2022-11-15T09:55:07.027Z,5.85
2022-11-15T09:57:45.736Z,6.31
2022-11-15T10:00:46.644Z,6.25
2022-11-15T10:03:14.753Z,6.19
2022-11-15T10:05:51.278Z,6.61
2022-11-15T10:08:51.276Z,6.42
2022-11-15T10:11:37.661Z,6.35
2022-11-15T10:14:22.223Z,6.41
2022-11-15T10:17:07.231Z,6.45
2022-11-15T10:19:43.795Z,6.17
2022-11-15T10:22:30.518Z,6.20
2022-11-15T10:25:27.920Z,6.57
2022-11-15T10:28:07.691Z,6.59
2022-11-15T10:31:02.726Z,6.57
2022-11-15T10:33:37.512Z,6.69
2022-11-15T10:36:09.764Z,6.59
2022-11-15T10:38:49.142Z,6.56
2022-11-15T10:41:23.665Z,6.64
2022-11-15T10:44:12.046Z,6.77
2022-11-15T10:46:49.107Z,6.83
2022-11-15T10:49:22.088Z,6.59
2022-11-15T10:51:52.862Z,6.28
2022-11-15T10:54:28.982Z,6.45
2022-11-15T10:57:00.004Z,6.68
2022-11-15T10:59:38.981Z,6.75
2022-11-15T11:02:24.323Z,6.91
2022-11-15T11:04:52.405Z,6.69
2022-11-15T11:07:25.365Z,6.92
2022-11-15T11:10:49.846Z,6.91
2022-11-15T11:13:24.709Z,6.94
2022-11-15T11:16:15.097Z,7.00
2022-11-15T11:18:50.723Z,7.05
2022-11-15T11:21:32.951Z,7.12
2022-11-15T11:24:15.744Z,7.08
2022-11-15T11:27:19.758Z,7.17
2022-11-15T11:30:17.222Z,7.20
2022-11-15T11:33:17.346Z,7.21
2022-11-15T11:36:02.896Z,7.18
2022-11-15T11:38:51.694Z,7.30
2022-11-15T11:41:45.290Z,7.30
2022-11-15T11:44:26.220Z,7.09
2022-11-15T11:46:59.126Z,7.30
2022-11-15T11:49:37.135Z,7.14
2022-11-15T11:52:13.265Z,7.46
2022-11-15T11:54:58.681Z,7.56
2022-11-15T11:57:40.733Z,7.45
2022-11-15T12:00:21.468Z,7.37
2022-11-15T12:02:58.879Z,7.22
2022-11-15T12:05:37.865Z,7.41
2022-11-15T12:08:22.897Z,7.33
2022-11-15T12:10:58.871Z,7.52
2022-11-15T12:13:30.146Z,7.55
2022-11-15T12:16:18.555Z,7.65
2022-11-15T12:18:50.761Z,7.72
2022-11-15T12:21:28.715Z,7.75
2022-11-15T12:24:05.397Z,7.74
2022-11-15T12:26:49.194Z,7.77
2022-11-15T12:29:24.992Z,7.85
2022-11-15T12:31:57.511Z,7.95
2022-11-15T12:34:36.440Z,7.94
2022-11-15T12:37:45.462Z,8.02
2022-11-15T12:40:21.751Z,7.98
2022-11-15T12:43:32.086Z,7.98
2022-11-15T12:46:04.888Z,8.00
2022-11-15T12:48:37.783Z,8.16
2022-11-15T12:51:05.443Z,8.14
2022-11-15T12:53:34.328Z,8.14
2022-11-15T12:56:07.566Z,8.14
2022-11-15T12:58:53.439Z,8.20
2022-11-15T13:01:36.326Z,8.28
2022-11-15T13:04:22.410Z,8.30
2022-11-15T13:06:51.067Z,8.23
2022-11-15T13:09:30.495Z,8.26
2022-11-15T13:11:59.584Z,8.17
2022-11-15T13:14:38.760Z,8.34
2022-11-15T13:17:38.760Z,8.20
2022-11-15T13:20:09.040Z,8.25
2022-11-15T13:23:00.566Z,8.20
2022-11-15T13:25:36.942Z,8.25
2022-11-15T13:28:10.937Z,8.26
2022-11-15T13:30:38.926Z,8.30
2022-11-15T13:33:17.607Z,8.33
2022-11-15T13:35:49.079Z,8.39
2022-11-15T13:38:25.230Z,8.41
2022-11-15T13:40:52.395Z,8.41
2022-11-15T13:43:22.391Z,8.36
2022-11-15T13:46:10.630Z,8.45
2022-11-15T13:48:38.730Z,8.51
2022-11-15T13:51:20.718Z,8.39
2022-11-15T13:53:54.547Z,8.45
2022-11-15T13:56:22.297Z,8.44
2022-11-15T13:58:49.699Z,8.51
2022-11-15T14:01:21.000Z,8.29
2022-11-15T14:03:56.627Z,8.39
2022-11-15T14:06:26.076Z,8.54
2022-11-15T14:09:04.597Z,8.50
2022-11-15T14:11:32.099Z,8.45
2022-11-15T14:14:14.067Z,8.50
2022-11-15T14:16:49.768Z,8.43
2022-11-15T14:19:22.772Z,8.46
2022-11-15T14:22:14.903Z,8.41
2022-11-15T14:24:47.470Z,8.42
2022-11-15T14:27:33.425Z,8.34
2022-11-15T14:30:01.063Z,8.37
2022-11-15T14:32:31.215Z,8.45
2022-11-15T14:35:03.161Z,8.39
2022-11-15T14:37:35.125Z,8.28
2022-11-15T14:40:05.307Z,8.34
2022-11-15T14:42:32.884Z,8.21
2022-11-15T14:44:59.876Z,8.19
2022-11-15T14:47:26.958Z,8.19
2022-11-15T14:49:53.804Z,8.10
2022-11-15T14:52:36.651Z,7.95
2022-11-15T14:55:12.911Z,7.93
2022-11-15T14:57:40.319Z,7.81
2022-11-15T15:00:09.947Z,7.73
2022-11-15T15:02:41.666Z,7.78
2022-11-15T15:05:20.249Z,7.61
2022-11-15T15:07:47.931Z,7.63
2022-11-15T15:13:03.787Z,7.20
2022-11-15T15:15:36.889Z,7.54
2022-11-15T15:18:05.876Z,7.52
2022-11-15T15:20:33.697Z,7.57
2022-11-15T15:23:00.847Z,7.52
2022-11-15T15:25:35.962Z,7.57
2022-11-15T15:28:04.286Z,7.52
2022-11-15T15:30:31.844Z,7.54
2022-11-15T15:32:58.943Z,7.28
2022-11-15T15:35:30.520Z,7.44
2022-11-15T15:37:57.834Z,7.44
2022-11-15T15:40:26.485Z,7.42
2022-11-15T15:42:53.743Z,7.44
2022-11-15T15:45:22.038Z,7.34
2022-11-15T15:47:50.557Z,7.02
2022-11-15T15:50:47.021Z,7.30
2022-11-15T15:53:14.630Z,7.28
2022-11-15T15:55:41.888Z,7.20
2022-11-15T15:58:09.407Z,7.12
2022-11-15T16:00:36.961Z,7.05
2022-11-15T16:03:04.318Z,6.97
2022-11-15T16:05:31.362Z,6.98
2022-11-15T16:07:58.397Z,6.91
2022-11-15T16:10:31.072Z,6.68
2022-11-15T16:12:58.908Z,6.87
2022-11-15T16:15:30.690Z,6.78
2022-11-15T16:18:00.633Z,6.76
2022-11-15T16:20:35.278Z,6.72
2022-11-15T16:23:08.655Z,6.68
2022-11-15T16:25:56.964Z,6.71
2022-11-15T16:28:29.681Z,6.61
2022-11-15T16:31:07.242Z,6.75
2022-11-15T16:33:34.652Z,6.75
2022-11-15T16:36:02.480Z,6.74
2022-11-15T16:38:29.688Z,6.71
2022-11-15T16:40:56.733Z,6.69
2022-11-15T16:43:23.992Z,6.68
2022-11-15T16:45:51.642Z,6.65
2022-11-15T16:48:28.776Z,6.60
2022-11-15T16:50:59.618Z,6.59
2022-11-15T16:53:27.820Z,6.56
2022-11-15T16:55:58.120Z,6.52
2022-11-15T16:58:25.435Z,6.52
2022-11-15T17:00:54.027Z,6.50
2022-11-15T17:03:22.133Z,6.44
2022-11-15T17:05:49.720Z,6.39
2022-11-15T17:08:16.842Z,6.45
2022-11-15T17:10:44.294Z,6.40
2022-11-15T17:13:14.473Z,6.34
2022-11-15T17:15:41.565Z,6.26
2022-11-15T17:18:13.118Z,6.19
2022-11-15T17:20:40.968Z,6.21
2022-11-15T17:23:14.563Z,6.19
2022-11-15T17:25:41.779Z,6.18
2022-11-15T17:28:08.722Z,6.20
2022-11-15T17:30:35.956Z,6.09
2022-11-15T17:33:02.994Z,6.14
2022-11-15T17:35:29.903Z,6.07
2022-11-15T17:37:56.851Z,5.89
2022-11-15T17:43:08.030Z,5.91
2022-11-15T17:45:35.237Z,5.97
2022-11-15T17:48:02.357Z,5.96
2022-11-15T17:50:29.422Z,6.00
2022-11-15T17:52:57.364Z,6.01
2022-11-15T17:55:24.226Z,5.98
2022-11-15T17:57:51.270Z,5.92
2022-11-15T18:00:20.940Z,5.94
2022-11-15T18:02:47.947Z,5.85
2022-11-15T18:05:14.895Z,5.91
2022-11-15T18:07:41.732Z,5.87
2022-11-15T18:10:10.415Z,5.91
2022-11-15T18:12:37.553Z,5.78
2022-11-15T18:15:05.007Z,5.78
2022-11-15T18:17:32.169Z,5.58
2022-11-15T18:19:59.279Z,5.77
2022-11-15T18:22:26.339Z,5.74
2022-11-15T18:24:53.462Z,5.79
2022-11-15T18:27:20.473Z,5.71
2022-11-15T18:29:47.291Z,5.67
2022-11-15T18:32:17.877Z,5.73
2022-11-15T18:34:44.842Z,5.73
2022-11-15T18:37:11.963Z,5.72
2022-11-15T18:39:38.877Z,5.74
2022-11-15T18:42:06.038Z,5.67
2022-11-15T18:44:32.964Z,5.67
2022-11-15T18:47:00.048Z,5.67
2022-11-15T18:49:27.049Z,5.29
2022-11-15T18:51:54.013Z,5.60
2022-11-15T18:54:20.904Z,5.56
2022-11-15T18:56:48.098Z,5.58
2022-11-15T18:59:16.480Z,5.48
2022-11-15T19:01:48.756Z,5.58
2022-11-15T19:04:18.705Z,5.56
2022-11-15T19:06:50.537Z,5.51
2022-11-15T19:09:19.518Z,5.53
2022-11-15T19:11:48.175Z,5.53
2022-11-15T19:14:17.285Z,5.46
2022-11-15T19:16:50.183Z,5.45
2022-11-15T19:19:19.975Z,5.39
2022-11-15T19:21:47.550Z,5.40
2022-11-15T19:24:14.717Z,5.39
2022-11-15T19:26:41.834Z,5.36
2022-11-15T19:29:14.080Z,5.28
2022-11-15T19:31:42.163Z,5.33
2022-11-15T19:34:09.169Z,5.19
2022-11-15T19:36:44.027Z,5.15
2022-11-15T19:39:14.682Z,5.12
2022-11-15T19:41:44.156Z,5.16
2022-11-15T19:44:12.797Z,5.20
2022-11-15T19:46:40.750Z,5.17
2022-11-15T19:49:10.886Z,5.18
2022-11-15T19:51:39.128Z,5.15
2022-11-15T19:54:08.922Z,5.17
2022-11-15T19:56:37.349Z,5.05
2022-11-15T19:59:05.265Z,5.06
2022-11-15T20:01:39.291Z,4.99
2022-11-15T20:04:08.137Z,5.09
2022-11-15T20:06:40.601Z,5.12
2022-11-15T20:09:08.434Z,5.08
2022-11-15T20:11:38.192Z,5.17
2022-11-15T20:14:06.968Z,5.20
2022-11-15T20:16:33.943Z,5.16
2022-11-15T20:19:00.841Z,5.06
2022-11-15T20:21:28.209Z,5.09
2022-11-15T20:23:56.386Z,5.01
2022-11-15T20:26:23.653Z,4.97
2022-11-15T20:28:50.582Z,5.00
2022-11-15T20:31:17.992Z,5.11
2022-11-15T20:33:45.389Z,5.04
2022-11-15T20:36:15.728Z,5.13
2022-11-15T20:38:44.494Z,5.02
2022-11-15T20:41:12.641Z,4.99
2022-11-15T20:43:43.349Z,5.05
2022-11-15T20:46:11.982Z,5.09
2022-11-15T20:48:39.342Z,5.06
2022-11-15T20:51:14.483Z,5.15
2022-11-15T20:53:43.228Z,5.16
2022-11-15T20:56:16.394Z,5.12
2022-11-15T20:58:45.512Z,5.05
2022-11-15T21:01:15.124Z,5.12
2022-11-15T21:03:42.893Z,5.10
2022-11-15T21:06:11.288Z,5.19
2022-11-15T21:08:57.471Z,5.20
2022-11-15T21:11:43.672Z,5.25
2022-11-15T21:14:11.124Z,5.20
2022-11-15T21:16:39.060Z,5.08
2022-11-15T21:19:07.002Z,5.30
2022-11-15T21:21:35.701Z,4.93
2022-11-15T21:24:06.761Z,5.35
2022-11-15T21:26:35.045Z,5.33
2022-11-15T21:29:03.553Z,5.33
2022-11-15T21:31:34.635Z,5.36
2022-11-15T21:34:07.365Z,5.28
2022-11-15T21:36:34.703Z,5.28
2022-11-15T21:39:01.669Z,5.13
2022-11-15T21:41:28.601Z,5.20
2022-11-15T21:43:59.701Z,5.24
2022-11-15T21:46:27.126Z,5.11
2022-11-15T21:48:54.011Z,5.08
2022-11-15T21:51:20.942Z,4.90
2022-11-15T21:53:48.132Z,5.12
2022-11-15T21:56:15.903Z,5.07
2022-11-15T21:58:42.849Z,5.02
2022-11-15T22:01:29.901Z,5.04
2022-11-15T22:03:57.269Z,4.95
2022-11-15T22:06:24.634Z,5.09
2022-11-15T22:08:51.456Z,4.99
2022-11-15T22:11:18.572Z,5.02
2022-11-15T22:13:45.520Z,4.91
2022-11-15T22:16:12.494Z,4.92
2022-11-15T22:18:39.634Z,4.93
2022-11-15T22:21:12.723Z,4.56
2022-11-15T22:23:41.124Z,4.92
2022-11-15T22:26:10.378Z,4.92
2022-11-15T22:28:37.731Z,4.82
2022-11-15T22:31:04.931Z,4.93
2022-11-15T22:33:33.546Z,4.95
2022-11-15T22:36:00.759Z,4.90
2022-11-15T22:38:28.589Z,4.91
2022-11-15T22:40:56.561Z,4.78
2022-11-15T22:43:27.509Z,4.77
2022-11-15T22:45:56.092Z,4.78
2022-11-15T22:48:28.595Z,4.77
2022-11-15T22:50:56.492Z,4.75
2022-11-15T22:53:24.017Z,4.77
2022-11-15T22:55:53.993Z,4.82
2022-11-15T22:58:22.992Z,4.76
2022-11-15T23:00:55.893Z,4.63
2022-11-15T23:03:24.186Z,4.68
2022-11-15T23:05:51.749Z,4.60
2022-11-15T23:08:19.403Z,4.56
2022-11-15T23:11:05.145Z,4.58
2022-11-15T23:13:33.144Z,4.56
2022-11-15T23:16:25.902Z,4.55
2022-11-15T23:18:58.094Z,4.56
2022-11-15T23:21:52.231Z,4.51
2022-11-15T23:24:20.351Z,4.47
2022-11-15T23:26:49.080Z,4.36
2022-11-15T23:29:19.011Z,4.36
2022-11-15T23:32:05.071Z,4.32
2022-11-15T23:34:35.381Z,4.33
2022-11-15T23:37:02.277Z,4.27
2022-11-15T23:39:29.579Z,4.36
2022-11-15T23:41:56.563Z,4.32
2022-11-15T23:44:24.123Z,4.35
2022-11-15T23:46:51.221Z,4.35
2022-11-15T23:49:18.893Z,4.38
2022-11-15T23:51:45.780Z,4.36
2022-11-15T23:54:12.819Z,4.39
2022-11-15T23:56:40.633Z,4.36
2022-11-15T23:59:07.717Z,4.45
